CST,Max TemperatureF,Mean TemperatureF,Min TemperatureF,Max Dew PointF,MeanDew PointF,Min DewpointF,Max Humidity, Mean Humidity, Min Humidity, Max Sea Level PressureIn, Mean Sea Level PressureIn, Min Sea Level PressureIn, Max VisibilityMiles, Mean VisibilityMiles, Min VisibilityMiles, Max Wind SpeedMPH, Mean Wind SpeedMPH, Max Gust SpeedMPH,PrecipitationIn, CloudCover, Events, WindDirDegrees
2012-11-1,84,60,39,39,35,31,77,40,15,30.03,29.95,29.85,10,10,10,17,6,,0.00,0,,192
2012-11-2,82,67,52,40,34,23,61,36,12,30.02,29.85,29.77,10,10,10,18,12,23,0.00,0,,265
2012-11-3,62,48,36,38,34,29,97,63,35,30.22,30.16,30.04,10,9,6,13,7,,0.00,0,,24
2012-11-4,71,50,30,33,31,27,88,54,24,30.23,30.14,30.03,10,10,10,12,5,17,0.00,0,,216
2012-11-5,66,52,37,36,32,27,68,47,28,30.20,30.13,30.08,10,10,10,23,9,29,0.00,1,,343
2012-11-6,73,53,33,36,32,26,79,49,25,30.18,30.13,30.07,10,10,2,21,6,25,0.00,0,,323
2012-11-7,75,55,35,35,32,29,79,46,21,30.20,30.06,29.89,10,10,10,23,9,31,0.00,0,,187
2012-11-8,84,66,48,42,36,29,71,42,14,29.88,29.80,29.72,10,10,10,28,18,33,0.00,0,,183
2012-11-9,84,68,53,52,40,27,72,38,12,29.76,29.70,29.62,10,10,10,30,16,39,0.00,0,,192
2012-11-10,79,70,60,59,54,45,90,64,38,29.73,29.62,29.50,10,10,2,32,22,47,0.34,2,Rain-Thunderstorm,185
2012-11-11,53,40,24,37,24,16,85,62,35,30.34,30.03,29.71,10,10,10,17,9,24,0.00,2,,338
2012-11-12,54,36,19,26,18,5,89,58,14,30.50,30.44,30.36,10,10,10,13,5,,0.00,0,,225
2012-11-13,55,42,28,24,21,17,75,47,25,30.43,30.33,30.24,10,10,10,25,11,31,0.00,0,,196
2012-11-14,63,46,28,26,19,14,67,40,15,30.34,30.25,30.15,10,10,10,20,8,,0.00,0,,208
2012-11-15,61,48,35,32,27,22,85,50,26,30.37,30.21,30.12,10,10,10,18,11,,0.00,0,,170
2012-11-16,61,44,28,37,32,26,92,67,38,30.44,30.35,30.27,10,10,10,20,7,20,0.00,0,,199
2012-11-17,66,55,44,41,33,27,56,47,37,30.26,30.19,30.12,10,10,10,26,20,34,0.00,0,,180
2012-11-18,68,57,46,48,36,25,80,47,35,30.11,30.03,29.96,10,10,10,29,19,38,0.00,1,,180
2012-11-19,72,56,39,48,43,39,100,81,34,30.18,30.09,30.01,10,7,0,13,7,,0.00,0,Fog,230
2012-11-20,73,53,33,43,37,31,96,65,21,30.28,30.20,30.14,10,10,10,12,6,21,0.00,0,,215
2012-11-21,75,58,42,47,41,31,93,57,20,30.17,30.06,29.88,10,10,10,28,12,37,0.00,0,,187
2012-11-22,73,60,46,50,38,22,77,46,16,30.33,29.97,29.84,10,10,10,28,21,37,0.00,0,,287
2012-11-23,53,40,28,30,20,15,73,49,23,30.58,30.49,30.36,10,10,10,12,7,18,0.00,0,,11
2012-11-24,64,47,30,26,19,16,59,35,16,30.40,30.12,29.86,10,10,10,28,13,34,0.00,0,,198
2012-11-25,63,46,28,26,25,22,78,51,24,29.91,29.87,29.81,10,10,10,10,4,,0.00,0,,62
2012-11-26,48,37,25,28,24,19,88,66,36,30.49,30.21,29.89,10,10,10,24,9,34,0.00,0,,10
2012-11-27,53,34,15,25,21,12,92,61,29,30.48,30.35,30.24,10,10,6,21,7,29,0.00,0,,203
2012-11-28,61,41,21,38,27,19,89,58,27,30.33,30.21,30.04,10,10,9,25,7,33,0.00,0,,174
2012-11-29,70,54,37,38,32,22,86,54,16,30.03,29.99,29.91,10,10,10,18,9,,0.00,0,,204
2012-11-30,69,48,27,45,35,24,93,73,42,30.07,29.98,29.86,10,10,7,15,4,21,0.00,0,,162